Rosiclare, Illinois
Current Conditions -  °F | °C
As of 3:55 AM on Saturday 29 Nov 2014 (Local Time) from K5M9 Reporting Station
Broken Clouds Broken Clouds  
Wind Chill: 37°   Ceiling: 2300
Heat Index: 43°   Visibility: 10mi
Dew Point: 30°   Wind: 10mph
Humidity: 60%   Direction: 200°SSW
Pressure: 29.98"   Gusts: 17mph
Location:  37.42°N, 88.35°W
Report Text: K5M9 290955Z AUTO 20009G15KT 160V230 10SM BKN023 BKN034 06/M01 A2998 RMK AO2 T00611012
Loading
Personal Weather Stations






























Interactive Weather Map New forecast layout! Learn more

10-Day Weather Forecast

Advertisements
Track Severe Weather on mobile